Airfield :
LOGIN :

Register | Disclaimer

   EN    FR    IT 

 










Legend :    VFR   Marginal VFR   IFR   Intensive IFR   Very Intensive IFR
Visi :
Ceiling :
>= 8 km
>= 3000ft
5 to 8 km
1000 to 3000 ft
1500m to 5 km
500 to 1000 ft
800 to 1500m
200 to 500 ft
< 800m
< 200 ft
Symbols :   Thunderstorms  Fog  Heavy snow  Heavy precipitations  Wind > 20 kt
SIGMETs :     Misc.  Thunderstorms  Icing  Turbulence  Mountain Waves  Volcanic Ashes






- Airport Elevation : 16 ft
- IATA code : EAS


LESO - San Sebastian Fuenterrabia

CURRENT METAR :
  • 200430Z 20003KT 170V230 CAVOK 11/09 Q1015

EXPIRED METARs :
  • 200400Z 18003KT 140V210 CAVOK 11/08 Q1015
  • 200330Z 22003KT CAVOK 11/09 Q1015
  • 200300Z AUTO 21003KT CAVOK 11/09 Q1015
  • 200230Z AUTO 19003KT 160V230 CAVOK 12/09 Q1016
  • 200200Z AUTO 00000KT CAVOK 12/08 Q1016
  • 200130Z AUTO 27001KT CAVOK 12/09 Q1016

TAF TAF LESO
Valid from the 20 at 00:00 until the 21 at 00:00 UTC


192300Z 2000/2024 VRB05KT 9999 FEW040 TX18/2014Z TN09/2006Z
PROB30
TEMPO 2000/2008 3000 BR BKN010
PROB30
TEMPO 2012/2018 33010KT



MET'MAP, your aeronautical weather chart ! - Copyright ORBIFLY December 2007 - Disclaimer

ORBIFLY MET'MAP TEAM :

Programming & Development : Alexandra Zaïnal
Concept & original design : Baudouin d'Aumeries
Assistance for programming : Marc-Olivier Méhu
Technical & hardware support : Manuel Goepfert

Contact : metmap@orbifly.com




SOURCES & CREDITS :

   NOAA